Time;durP1;ratioP1;P1;durP2;ratioP2;P2;SDS_P1;SDS_P2;PMS_P1;PMS_P2;Temp;Humidity;BMP_temperature;BMP_pressure;BME280_temperature;BME280_humidity;BME280_pressure;Samples;Min_cycle;Max_cycle;Signal;HPM_P1;HPM_P2
2021/03/03 00:01:22;;;;;;;37.70;25.35;;;4.70;99.90;;;;;;4809623;29;20203;-87
2021/03/03 00:03:49;;;;;;;27.63;20.70;;;4.70;99.90;;;;;;4819751;29;20237;-86
2021/03/03 00:06:15;;;;;;;33.85;21.48;;;5.00;99.90;;;;;;4810551;29;20227;-86
2021/03/03 00:08:42;;;;;;;31.58;22.02;;;4.60;99.90;;;;;;4802070;29;20215;-85
2021/03/03 00:11:09;;;;;;;32.83;22.83;;;4.50;99.90;;;;;;4819189;29;20230;-86
2021/03/03 00:13:36;;;;;;;28.63;20.00;;;4.70;99.90;;;;;;4826665;29;20220;-86
2021/03/03 00:16:04;;;;;;;31.55;21.77;;;4.60;99.90;;;;;;4792226;29;20525;-86
2021/03/03 00:18:32;;;;;;;29.85;21.58;;;4.40;99.90;;;;;;4807938;29;20244;-86
2021/03/03 00:20:58;;;;;;;28.05;20.92;;;4.40;99.90;;;;;;4814436;29;20211;-86
2021/03/03 00:23:25;;;;;;;30.52;21.25;;;4.40;99.90;;;;;;4779942;29;20213;-86
2021/03/03 00:25:52;;;;;;;26.05;19.80;;;4.60;99.90;;;;;;4797371;29;20272;-88
2021/03/03 00:28:19;;;;;;;25.38;19.95;;;4.50;99.90;;;;;;4789770;29;20208;-86
2021/03/03 00:30:45;;;;;;;25.98;19.40;;;4.30;99.90;;;;;;4802581;29;20283;-86
2021/03/03 00:33:12;;;;;;;28.83;20.35;;;4.40;99.90;;;;;;4796901;29;20228;-86
2021/03/03 00:35:40;;;;;;;28.10;20.70;;;4.40;99.90;;;;;;4798303;29;20248;-87
2021/03/03 00:38:07;;;;;;;28.92;20.02;;;4.40;99.90;;;;;;4807040;29;20564;-87
2021/03/03 00:40:34;;;;;;;25.95;20.83;;;4.10;99.90;;;;;;4808567;29;20291;-86
2021/03/03 00:43:01;;;;;;;25.65;21.40;;;4.00;99.90;;;;;;4811146;29;20595;-86
2021/03/03 00:45:28;;;;;;;24.55;20.00;;;4.00;99.90;;;;;;4797232;29;20234;-87
2021/03/03 00:47:55;;;;;;;25.83;19.33;;;4.00;99.90;;;;;;4769085;29;20250;-87
2021/03/03 00:50:24;;;;;;;25.13;17.27;;;4.00;99.90;;;;;;4779258;29;20681;-87
2021/03/03 00:52:58;;;;;;;28.33;19.10;;;4.00;99.90;;;;;;4784984;29;20249;-86
2021/03/03 00:55:28;;;;;;;25.83;19.97;;;4.00;99.90;;;;;;4801903;24;20288;-82
2021/03/03 00:57:57;;;;;;;27.02;19.52;;;4.00;99.90;;;;;;4797702;29;20196;-82
2021/03/03 01:00:25;;;;;;;23.92;18.45;;;3.90;99.90;;;;;;4795836;29;20353;-80
2021/03/03 01:02:55;;;;;;;24.93;17.90;;;3.90;99.90;;;;;;4795995;29;20200;-81
2021/03/03 01:05:24;;;;;;;23.13;17.63;;;3.90;99.90;;;;;;4795702;29;20227;-82
2021/03/03 01:07:52;;;;;;;23.30;16.52;;;3.80;99.90;;;;;;4796072;29;20204;-81
2021/03/03 01:10:20;;;;;;;22.53;17.60;;;3.80;99.90;;;;;;4796489;29;20223;-82
2021/03/03 01:12:52;;;;;;;24.10;17.83;;;4.00;99.90;;;;;;4780606;29;20216;-82
2021/03/03 01:15:19;;;;;;;20.58;15.95;;;3.70;99.90;;;;;;4781415;29;20589;-82
2021/03/03 01:17:48;;;;;;;23.67;17.60;;;3.70;99.90;;;;;;4812306;29;20257;-82
2021/03/03 01:20:15;;;;;;;23.47;17.43;;;3.60;99.90;;;;;;4780961;29;20211;-81
2021/03/03 01:22:42;;;;;;;22.03;16.30;;;3.60;99.90;;;;;;4779642;29;20271;-81
2021/03/03 01:25:09;;;;;;;23.50;17.33;;;3.60;99.90;;;;;;4814016;29;20262;-81
2021/03/03 01:27:37;;;;;;;19.00;14.93;;;3.50;99.90;;;;;;4787725;29;20558;-82
2021/03/03 01:30:04;;;;;;;23.67;14.80;;;3.50;99.90;;;;;;4795880;29;20200;-79
2021/03/03 01:32:31;;;;;;;18.27;14.85;;;3.50;99.90;;;;;;4794810;29;20245;-82
2021/03/03 01:34:58;;;;;;;17.80;13.82;;;3.50;99.90;;;;;;4814011;29;20209;-81
2021/03/03 01:37:25;;;;;;;18.77;12.90;;;3.50;99.90;;;;;;4810912;29;20194;-82
2021/03/03 01:39:52;;;;;;;17.87;14.63;;;3.40;99.90;;;;;;4809983;29;20204;-82
2021/03/03 01:42:19;;;;;;;14.02;11.40;;;3.40;99.90;;;;;;4797537;29;20370;-82
2021/03/03 01:44:46;;;;;;;15.68;12.10;;;3.40;99.90;;;;;;4796111;29;20212;-82
2021/03/03 01:47:13;;;;;;;14.45;11.48;;;3.40;99.90;;;;;;4795835;29;20219;-81
2021/03/03 01:49:39;;;;;;;14.93;12.23;;;3.20;99.90;;;;;;4812141;29;20248;-85
2021/03/03 01:52:08;;;;;;;14.40;11.47;;;3.20;99.90;;;;;;4809882;29;20741;-81
2021/03/03 01:54:35;;;;;;;14.35;11.30;;;3.20;99.90;;;;;;4814768;29;20262;-81
2021/03/03 01:57:02;;;;;;;15.23;12.13;;;3.20;99.90;;;;;;4790563;29;20247;-81
2021/03/03 01:59:29;;;;;;;15.37;12.33;;;3.20;99.90;;;;;;4816689;29;20208;-81
2021/03/03 02:01:57;;;;;;;13.38;11.52;;;3.20;99.90;;;;;;4800956;29;20203;-82
2021/03/03 02:04:24;;;;;;;18.90;13.93;;;3.10;99.90;;;;;;4793517;29;20196;-81
2021/03/03 02:06:59;;;;;;;16.42;13.32;;;3.10;99.90;;;;;;4793082;29;20289;-81
2021/03/03 02:09:33;;;;;;;17.67;14.40;;;3.20;99.90;;;;;;4776024;30;20203;-81
2021/03/03 02:12:07;;;;;;;16.85;13.75;;;3.10;99.90;;;;;;4785451;29;20212;-81
2021/03/03 02:14:35;;;;;;;18.08;13.23;;;3.20;99.90;;;;;;4793892;29;20235;-81
2021/03/03 02:17:03;;;;;;;17.75;14.45;;;3.10;99.90;;;;;;4808870;29;20220;-81
2021/03/03 02:19:36;;;;;;;18.10;13.07;;;3.20;99.90;;;;;;4792789;29;20669;-82
2021/03/03 02:22:09;;;;;;;17.20;14.43;;;3.20;99.90;;;;;;4798023;29;20203;-82
2021/03/03 02:24:43;;;;;;;13.45;11.27;;;3.10;99.90;;;;;;4814244;29;20208;-83
2021/03/03 02:27:11;;;;;;;19.33;14.52;;;3.00;99.90;;;;;;4815140;29;20196;-84
2021/03/03 02:29:38;;;;;;;19.40;14.83;;;3.00;99.90;;;;;;4815510;29;20184;-84
2021/03/03 02:32:06;;;;;;;15.32;12.70;;;3.00;99.90;;;;;;4799795;29;20212;-81
2021/03/03 02:34:33;;;;;;;15.53;11.60;;;3.00;99.90;;;;;;4794545;29;20242;-82
2021/03/03 02:37:01;;;;;;;17.53;12.97;;;3.00;99.90;;;;;;4795686;29;20235;-81
2021/03/03 02:39:29;;;;;;;17.85;12.18;;;3.00;99.90;;;;;;4817160;29;20207;-82
2021/03/03 02:41:58;;;;;;;13.70;11.17;;;3.20;99.90;;;;;;4805251;29;20219;-82
2021/03/03 02:44:27;;;;;;;14.50;12.25;;;3.00;99.90;;;;;;4804662;29;20204;-81
2021/03/03 02:46:54;;;;;;;16.27;12.00;;;2.90;99.90;;;;;;4808179;29;20264;-82
2021/03/03 02:49:22;;;;;;;13.27;11.40;;;2.90;99.90;;;;;;4797416;29;20211;-83
2021/03/03 02:51:50;;;;;;;12.07;10.82;;;2.90;99.90;;;;;;4829759;29;20188;-82
2021/03/03 02:54:16;;;;;;;14.57;12.30;;;2.90;99.90;;;;;;4829585;29;20212;-83
2021/03/03 02:56:47;;;;;;;15.07;10.93;;;2.90;99.90;;;;;;4836881;29;20349;-83
2021/03/03 02:59:27;;;;;;;13.73;10.87;;;2.90;99.90;;;;;;4835243;29;20184;-81
2021/03/03 03:01:55;;;;;;;10.77;9.23;;;2.90;99.90;;;;;;4799140;29;20198;-82
2021/03/03 03:04:24;;;;;;;11.98;10.55;;;2.90;99.90;;;;;;4814048;29;20224;-83
2021/03/03 03:06:54;;;;;;;13.30;11.00;;;2.90;99.90;;;;;;4814105;29;20247;-83
2021/03/03 03:09:20;;;;;;;12.43;10.73;;;2.90;99.90;;;;;;4813793;29;20199;-83
2021/03/03 03:11:51;;;;;;;12.80;9.40;;;2.90;99.90;;;;;;4814402;29;20204;-84
2021/03/03 03:14:20;;;;;;;13.33;10.00;;;2.90;99.90;;;;;;4829758;29;20224;-84
2021/03/03 03:16:49;;;;;;;14.77;11.47;;;2.90;99.90;;;;;;4813077;29;20246;-83
2021/03/03 03:19:21;;;;;;;16.20;11.57;;;2.90;99.90;;;;;;4814303;29;20252;-84
2021/03/03 03:21:50;;;;;;;13.35;10.27;;;2.90;99.90;;;;;;4798716;29;20232;-82
2021/03/03 03:24:19;;;;;;;13.68;10.40;;;3.10;99.90;;;;;;4828360;29;20200;-82
2021/03/03 03:26:48;;;;;;;16.03;10.47;;;3.50;99.90;;;;;;4814055;29;20232;-84
2021/03/03 03:29:16;;;;;;;16.33;11.30;;;3.70;99.90;;;;;;4829444;29;20219;-83
2021/03/03 03:31:44;;;;;;;16.42;11.60;;;3.80;99.90;;;;;;4813416;29;20192;-84
2021/03/03 03:34:12;;;;;;;13.53;10.93;;;3.90;99.90;;;;;;4813763;29;20212;-82
2021/03/03 03:36:40;;;;;;;14.87;11.17;;;3.80;99.90;;;;;;4813671;29;20212;-83
2021/03/03 03:39:08;;;;;;;15.83;10.77;;;3.60;99.90;;;;;;4814034;29;20195;-84
2021/03/03 03:41:37;;;;;;;13.60;10.63;;;3.40;99.90;;;;;;4813822;29;20189;-83
2021/03/03 03:44:06;;;;;;;14.20;10.40;;;3.20;99.90;;;;;;4808416;29;20737;-82
2021/03/03 03:46:33;;;;;;;13.20;10.00;;;3.10;99.90;;;;;;4796357;29;20228;-82
2021/03/03 03:49:01;;;;;;;15.33;11.20;;;3.00;99.90;;;;;;4793857;29;20211;-82
2021/03/03 03:51:29;;;;;;;15.18;10.38;;;2.90;99.90;;;;;;4810096;29;20256;-82
2021/03/03 03:53:56;;;;;;;12.30;10.07;;;2.90;99.90;;;;;;4793330;29;20204;-81
2021/03/03 03:56:23;;;;;;;13.60;10.33;;;2.90;99.90;;;;;;4809119;29;20242;-82
2021/03/03 03:58:49;;;;;;;13.90;10.63;;;2.90;99.90;;;;;;4777763;29;20239;-82
2021/03/03 04:01:16;;;;;;;13.00;10.02;;;2.80;99.90;;;;;;4777594;29;20211;-82
2021/03/03 04:03:43;;;;;;;16.83;11.23;;;2.90;99.90;;;;;;4792796;29;20289;-82
2021/03/03 04:06:10;;;;;;;13.07;10.87;;;2.90;99.90;;;;;;4793429;29;20265;-82
2021/03/03 04:08:39;;;;;;;12.77;10.40;;;2.90;99.90;;;;;;4792679;29;20236;-82
2021/03/03 04:11:05;;;;;;;12.10;9.82;;;2.90;99.90;;;;;;4792932;29;20216;-82
2021/03/03 04:13:32;;;;;;;12.67;9.77;;;2.90;99.90;;;;;;4792607;29;20200;-82
2021/03/03 04:15:59;;;;;;;12.27;10.00;;;2.90;99.90;;;;;;4792394;29;20224;-82
2021/03/03 04:18:25;;;;;;;13.77;9.73;;;2.90;99.90;;;;;;4777490;29;20613;-82
2021/03/03 04:20:52;;;;;;;13.73;10.70;;;2.90;99.90;;;;;;4808146;29;20204;-82
2021/03/03 04:23:19;;;;;;;13.63;10.32;;;2.80;99.90;;;;;;4791901;29;20287;-81
2021/03/03 04:25:46;;;;;;;13.55;9.88;;;2.80;99.90;;;;;;4791597;29;20234;-82
2021/03/03 04:28:13;;;;;;;14.18;11.13;;;2.80;99.90;;;;;;4793185;29;20475;-82
2021/03/03 04:30:39;;;;;;;17.50;10.27;;;2.80;99.90;;;;;;4786257;29;20219;-82
2021/03/03 04:33:06;;;;;;;13.30;10.27;;;2.80;99.90;;;;;;4805022;29;20230;-82
2021/03/03 04:35:34;;;;;;;14.27;11.10;;;2.80;99.90;;;;;;4815882;29;20835;-82
2021/03/03 04:38:01;;;;;;;14.10;10.15;;;2.80;99.90;;;;;;4799033;29;20211;-82
2021/03/03 04:40:27;;;;;;;18.27;11.43;;;2.80;99.90;;;;;;4814135;29;20200;-82
2021/03/03 04:42:55;;;;;;;15.73;11.43;;;2.80;99.90;;;;;;4815234;29;20351;-82
2021/03/03 04:45:22;;;;;;;14.77;10.60;;;2.90;99.90;;;;;;4815605;29;20302;-82
2021/03/03 04:47:48;;;;;;;15.15;11.48;;;2.90;99.90;;;;;;4815203;29;20623;-82
2021/03/03 04:50:15;;;;;;;15.65;11.77;;;2.90;99.90;;;;;;4820088;29;20204;-82
2021/03/03 04:52:43;;;;;;;14.73;10.97;;;2.90;99.90;;;;;;4801729;29;20212;-82
2021/03/03 04:55:10;;;;;;;16.67;10.93;;;3.10;99.90;;;;;;4785862;29;20220;-82
2021/03/03 04:57:37;;;;;;;18.13;13.37;;;3.30;99.90;;;;;;4801286;29;20219;-82
2021/03/03 05:00:07;;;;;;;18.63;12.40;;;3.40;99.90;;;;;;4800986;29;20264;-82
2021/03/03 05:02:34;;;;;;;22.17;13.37;;;3.50;99.90;;;;;;4806501;29;20208;-82
2021/03/03 05:05:01;;;;;;;18.57;13.97;;;3.60;99.90;;;;;;4805666;29;20732;-82
2021/03/03 05:07:28;;;;;;;15.70;12.67;;;3.70;99.90;;;;;;4808245;29;20212;-82
2021/03/03 05:09:55;;;;;;;17.98;14.27;;;3.70;99.90;;;;;;4835890;29;20229;-82
2021/03/03 05:12:23;;;;;;;17.77;13.02;;;3.70;99.90;;;;;;4826065;29;20204;-82
2021/03/03 05:14:50;;;;;;;19.60;14.07;;;3.70;99.90;;;;;;4815068;29;20433;-82
2021/03/03 05:17:17;;;;;;;22.47;16.23;;;3.80;99.90;;;;;;4815443;29;20238;-82
2021/03/03 05:19:44;;;;;;;16.73;12.13;;;4.00;99.90;;;;;;4799324;29;20298;-81
2021/03/03 05:22:11;;;;;;;19.73;14.47;;;3.80;99.90;;;;;;4799659;29;20262;-81
2021/03/03 05:24:38;;;;;;;22.30;14.95;;;3.70;99.90;;;;;;4814679;29;20254;-82
2021/03/03 05:27:05;;;;;;;21.20;13.30;;;3.80;99.90;;;;;;4799310;29;20235;-82
2021/03/03 05:29:32;;;;;;;21.63;16.30;;;3.80;99.90;;;;;;4799600;29;20237;-82
2021/03/03 05:31:59;;;;;;;20.13;15.27;;;4.00;99.90;;;;;;4799156;29;20215;-81
2021/03/03 05:34:27;;;;;;;21.13;15.17;;;3.80;99.90;;;;;;4799148;29;20208;-82
2021/03/03 05:36:54;;;;;;;22.47;16.50;;;3.80;99.90;;;;;;4799611;29;20708;-81
2021/03/03 05:39:21;;;;;;;23.37;14.03;;;4.10;99.90;;;;;;4797055;29;20208;-82
2021/03/03 05:41:48;;;;;;;24.10;16.33;;;3.70;99.90;;;;;;4781657;29;20303;-81
2021/03/03 05:44:15;;;;;;;23.60;16.57;;;3.80;99.90;;;;;;4782452;29;20310;-82
2021/03/03 05:46:46;;;;;;;23.00;15.57;;;3.80;99.90;;;;;;4813634;29;20220;-81
2021/03/03 05:49:16;;;;;;;22.00;16.63;;;3.70;99.90;;;;;;4809519;29;20199;-83
2021/03/03 05:51:45;;;;;;;26.63;17.23;;;3.70;99.90;;;;;;4816167;29;20176;-82
2021/03/03 05:54:13;;;;;;;20.93;15.80;;;3.70;99.90;;;;;;4784109;29;20227;-82
2021/03/03 05:56:40;;;;;;;28.47;17.23;;;3.90;99.90;;;;;;4796193;29;20248;-82
2021/03/03 05:59:29;;;;;;;23.65;15.27;;;3.70;99.90;;;;;;4798287;29;20195;-81
2021/03/03 06:01:56;;;;;;;23.37;16.43;;;3.70;99.90;;;;;;4780689;29;20231;-82
2021/03/03 06:04:23;;;;;;;18.35;14.65;;;3.60;99.90;;;;;;4794691;29;20331;-81
2021/03/03 06:06:51;;;;;;;20.57;16.03;;;3.70;99.90;;;;;;4809154;29;20436;-82
2021/03/03 06:09:19;;;;;;;20.50;15.55;;;3.70;99.90;;;;;;4781324;29;20208;-82
2021/03/03 06:11:46;;;;;;;24.92;17.55;;;3.70;99.90;;;;;;4781863;29;20216;-82
2021/03/03 06:14:13;;;;;;;26.00;16.83;;;3.70;99.90;;;;;;4811695;29;20299;-82
2021/03/03 06:16:40;;;;;;;25.35;17.27;;;3.90;99.90;;;;;;4781499;29;20227;-82
2021/03/03 06:19:08;;;;;;;25.40;17.73;;;3.80;99.90;;;;;;4811137;29;20204;-81
2021/03/03 06:21:35;;;;;;;24.60;17.63;;;3.80;99.90;;;;;;4811116;29;20353;-81
2021/03/03 06:24:04;;;;;;;25.77;18.05;;;3.80;99.90;;;;;;4794409;29;20251;-82
2021/03/03 06:26:32;;;;;;;25.52;17.92;;;3.80;99.90;;;;;;4794787;29;20224;-82
2021/03/03 06:28:59;;;;;;;22.77;16.27;;;3.70;99.90;;;;;;4794549;29;20299;-81
2021/03/03 06:31:31;;;;;;;25.30;18.23;;;3.70;99.90;;;;;;4794820;29;20208;-82
2021/03/03 06:34:12;;;;;;;23.88;17.10;;;3.70;99.90;;;;;;4811182;29;20219;-82
2021/03/03 06:36:40;;;;;;;25.10;16.37;;;3.80;99.90;;;;;;4803437;29;20223;-81
2021/03/03 06:39:23;;;;;;;27.10;17.70;;;3.90;99.90;;;;;;4810275;29;20277;-82
2021/03/03 06:41:52;;;;;;;26.43;17.00;;;3.90;99.90;;;;;;4811239;29;20204;-81
2021/03/03 06:44:19;;;;;;;27.48;18.35;;;3.90;99.90;;;;;;4794642;29;20344;-81
2021/03/03 06:47:02;;;;;;;29.93;18.17;;;3.80;99.90;;;;;;4810368;29;20232;-82
2021/03/03 06:49:29;;;;;;;27.73;18.48;;;4.20;99.90;;;;;;4808445;29;20215;-81
2021/03/03 06:51:56;;;;;;;26.20;17.93;;;4.20;99.90;;;;;;4816351;29;20201;-82
2021/03/03 06:54:29;;;;;;;28.38;17.90;;;4.20;99.90;;;;;;4799049;29;20279;-82
2021/03/03 06:56:57;;;;;;;32.47;19.00;;;4.20;99.90;;;;;;4817808;24;20311;-89
2021/03/03 06:59:25;;;;;;;28.45;18.02;;;4.10;99.90;;;;;;4799891;29;20191;-91
2021/03/03 07:01:54;;;;;;;26.10;17.60;;;4.10;99.90;;;;;;4814751;29;20191;-88
2021/03/03 07:04:31;;;;;;;21.67;16.95;;;4.10;99.90;;;;;;4814969;29;20211;-89
2021/03/03 07:07:01;;;;;;;28.33;19.38;;;4.20;99.90;;;;;;4794651;29;20263;-89
2021/03/03 07:09:39;;;;;;;21.38;17.20;;;4.20;99.90;;;;;;4794078;29;20185;-89
2021/03/03 07:12:09;;;;;;;34.37;18.60;;;4.20;99.90;;;;;;4796682;29;20212;-90
2021/03/03 07:14:39;;;;;;;23.67;17.58;;;4.40;99.90;;;;;;4796452;29;20249;-89
2021/03/03 07:17:08;;;;;;;27.40;17.63;;;4.50;99.90;;;;;;4784190;29;20259;-88
2021/03/03 07:19:36;;;;;;;20.15;15.25;;;4.50;99.90;;;;;;4781374;30;20279;-89
2021/03/03 07:22:05;;;;;;;23.38;16.85;;;4.50;99.90;;;;;;4777278;30;20221;-89
2021/03/03 07:24:33;;;;;;;23.48;16.95;;;4.60;99.90;;;;;;4798002;29;20240;-89
2021/03/03 07:27:03;;;;;;;22.80;18.33;;;4.70;99.90;;;;;;4782198;29;20237;-90
2021/03/03 07:29:33;;;;;;;21.58;16.77;;;5.00;99.90;;;;;;4775112;30;20770;-89
2021/03/03 07:32:00;;;;;;;20.95;14.88;;;5.00;99.90;;;;;;4788613;29;20304;-90
2021/03/03 07:34:31;;;;;;;23.80;15.50;;;5.10;99.90;;;;;;4780803;30;20213;-88
2021/03/03 07:36:59;;;;;;;23.13;15.70;;;5.30;99.90;;;;;;4785506;29;20318;-87
2021/03/03 07:39:32;;;;;;;25.35;16.48;;;5.10;99.90;;;;;;4797902;29;20282;-89
2021/03/03 07:42:03;;;;;;;20.48;13.82;;;5.20;99.90;;;;;;4774917;30;20200;-85
2021/03/03 07:44:31;;;;;;;21.43;16.30;;;5.40;99.90;;;;;;4774951;30;20224;-87
2021/03/03 07:47:00;;;;;;;23.20;15.80;;;5.60;99.90;;;;;;4791478;30;20248;-87
2021/03/03 07:49:30;;;;;;;20.92;13.63;;;5.50;99.90;;;;;;4790260;29;20212;-87
2021/03/03 07:51:58;;;;;;;22.52;15.82;;;5.60;99.90;;;;;;4805646;30;20209;-89
2021/03/03 07:54:26;;;;;;;22.23;17.17;;;5.70;99.90;;;;;;4809422;29;20205;-89
2021/03/03 07:56:54;;;;;;;22.73;15.02;;;5.90;99.90;;;;;;4794252;29;20241;-88
2021/03/03 07:59:22;;;;;;;20.63;14.35;;;6.00;99.90;;;;;;4809249;29;20208;-89
2021/03/03 08:01:51;;;;;;;20.45;14.65;;;6.10;99.90;;;;;;4791705;30;20205;-89
2021/03/03 08:04:37;;;;;;;18.90;13.57;;;6.40;99.90;;;;;;4795269;29;20229;-87
2021/03/03 08:07:19;;;;;;;19.13;13.52;;;6.40;99.90;;;;;;4784607;30;20237;-88
2021/03/03 08:10:31;;;;;;;19.50;14.85;;;6.50;99.90;;;;;;4794231;29;20216;-87
2021/03/03 08:13:03;;;;;;;20.60;15.25;;;6.70;99.90;;;;;;4775946;30;20204;-88
2021/03/03 08:15:41;;;;;;;20.77;14.85;;;6.80;99.90;;;;;;4797996;30;20277;-90
2021/03/03 08:18:24;;;;;;;19.45;13.05;;;7.00;99.90;;;;;;4774836;30;20235;-88
2021/03/03 08:20:52;;;;;;;18.48;12.75;;;7.10;99.90;;;;;;4776618;30;20246;-88
2021/03/03 08:23:44;;;;;;;22.75;14.73;;;7.30;99.90;;;;;;4767548;29;20226;-88
2021/03/03 08:26:35;;;;;;;21.33;13.32;;;7.30;99.90;;;;;;4781704;29;20256;-88
2021/03/03 08:29:29;;;;;;;17.77;14.07;;;7.30;99.90;;;;;;4787261;29;20230;-88
2021/03/03 08:32:24;;;;;;;18.17;13.30;;;7.40;99.90;;;;;;4813418;29;20205;-88
2021/03/03 08:34:59;;;;;;;18.05;13.15;;;7.50;99.90;;;;;;4762324;30;20211;-86
2021/03/03 08:37:31;;;;;;;17.52;12.82;;;7.50;99.90;;;;;;4781460;30;20284;-86
2021/03/03 08:39:59;;;;;;;17.50;13.60;;;7.50;99.90;;;;;;4794027;29;20203;-89
2021/03/03 08:42:34;;;;;;;20.40;13.48;;;7.60;99.90;;;;;;4790057;29;20277;-90
2021/03/03 08:45:09;;;;;;;18.95;14.32;;;7.70;99.90;;;;;;4794138;29;20220;-88
2021/03/03 08:51:21;;;;;;;17.67;13.43;;;8.20;99.90;;;;;;4795629;29;20212;-89
2021/03/03 08:53:50;;;;;;;15.48;12.85;;;8.40;99.90;;;;;;4792964;29;20209;-88
2021/03/03 08:56:38;;;;;;;18.17;12.88;;;8.80;99.90;;;;;;4775367;30;20231;-89
2021/03/03 08:59:06;;;;;;;17.60;13.48;;;8.80;99.90;;;;;;4793673;30;20222;-89
2021/03/03 09:01:56;;;;;;;18.40;13.25;;;9.10;99.90;;;;;;4775537;30;20212;-88
2021/03/03 09:04:27;;;;;;;23.65;14.25;;;9.00;99.90;;;;;;4760850;30;20289;-89
2021/03/03 09:06:56;;;;;;;18.17;14.20;;;9.20;99.90;;;;;;4758945;30;20750;-88
2021/03/03 09:09:25;;;;;;;17.42;14.13;;;9.20;99.90;;;;;;4758406;30;20350;-88
2021/03/03 09:11:59;;;;;;;16.27;12.43;;;9.30;99.90;;;;;;4748857;30;20213;-89
2021/03/03 09:14:27;;;;;;;19.90;13.50;;;9.30;99.90;;;;;;4771825;30;20208;-89
2021/03/03 09:16:56;;;;;;;15.10;11.63;;;9.60;99.90;;;;;;4765797;30;20229;-89
2021/03/03 09:19:28;;;;;;;19.55;12.80;;;9.40;99.90;;;;;;4758749;30;20327;-89
2021/03/03 09:21:57;;;;;;;19.45;12.75;;;9.30;99.90;;;;;;4786826;30;20226;-88
2021/03/03 09:24:33;;;;;;;17.25;14.00;;;9.20;99.90;;;;;;4789047;30;20229;-88
2021/03/03 09:27:07;;;;;;;19.15;13.20;;;9.30;99.90;;;;;;4764681;30;20231;-88
2021/03/03 09:29:37;;;;;;;16.10;13.45;;;9.10;99.90;;;;;;4779849;30;20228;-88
2021/03/03 09:32:07;;;;;;;18.52;14.57;;;9.00;99.90;;;;;;4765353;30;20219;-88
2021/03/03 09:34:42;;;;;;;17.80;14.45;;;9.10;99.90;;;;;;4775235;29;20174;-92
2021/03/03 09:37:10;;;;;;;21.55;15.18;;;9.40;99.90;;;;;;4786326;29;20253;-90
2021/03/03 09:39:41;;;;;;;20.20;15.30;;;9.40;99.90;;;;;;4820586;29;20251;-90
2021/03/03 09:42:10;;;;;;;17.73;13.65;;;9.40;99.90;;;;;;4805639;29;20195;-90
2021/03/03 09:44:49;;;;;;;17.83;13.68;;;9.30;99.90;;;;;;4799507;29;20225;-91
2021/03/03 09:50:11;;;;;;;18.80;13.68;;;9.70;99.90;;;;;;4826542;24;20327;-38
2021/03/03 09:52:40;;;;;;;22.25;15.23;;;9.90;99.90;;;;;;4785850;29;20599;-38
2021/03/03 09:55:09;;;;;;;20.40;13.00;;;10.00;99.90;;;;;;4805917;29;20253;-38
2021/03/03 09:57:36;;;;;;;15.30;12.98;;;10.10;99.90;;;;;;4806143;29;20307;-38
2021/03/03 10:00:07;;;;;;;15.88;13.02;;;10.40;99.90;;;;;;4796036;29;20204;-38
2021/03/03 10:02:35;;;;;;;17.77;12.77;;;10.50;99.90;;;;;;4802245;24;20308;-43
2021/03/03 10:05:02;;;;;;;21.45;13.95;;;10.70;99.90;;;;;;4802867;29;20517;-43
2021/03/03 10:07:30;;;;;;;21.38;13.68;;;10.70;99.90;;;;;;4803937;29;20223;-42
2021/03/03 10:09:58;;;;;;;20.50;13.65;;;10.80;99.90;;;;;;4802783;29;20228;-42
2021/03/03 10:12:27;;;;;;;17.95;12.60;;;10.80;99.90;;;;;;4803403;29;20211;-42
2021/03/03 10:14:57;;;;;;;20.33;13.52;;;11.00;99.90;;;;;;4793193;29;20197;-43
2021/03/03 10:17:37;;;;;;;22.05;13.35;;;11.10;99.90;;;;;;4785902;30;20287;-43
2021/03/03 10:20:07;;;;;;;19.13;12.82;;;11.30;99.90;;;;;;4785883;29;20239;-41
2021/03/03 10:22:35;;;;;;;17.38;12.20;;;11.40;99.90;;;;;;4785305;30;20688;-41
2021/03/03 10:25:04;;;;;;;14.95;10.77;;;11.50;99.90;;;;;;4785288;29;20232;-41
2021/03/03 10:27:36;;;;;;;16.80;11.70;;;11.70;99.90;;;;;;4790134;29;20207;-41
2021/03/03 10:30:21;;;;;;;16.88;11.35;;;11.90;99.90;;;;;;4795582;29;20251;-42
2021/03/03 10:32:48;;;;;;;19.02;12.20;;;12.20;99.90;;;;;;4790677;29;20223;-41
2021/03/03 10:35:15;;;;;;;16.88;11.63;;;12.70;99.90;;;;;;4799888;29;20625;-42
2021/03/03 10:37:42;;;;;;;17.38;11.40;;;12.70;99.90;;;;;;4802199;29;20207;-41
2021/03/03 10:40:13;;;;;;;16.60;11.95;;;12.60;99.90;;;;;;4793442;29;20266;-42
2021/03/03 10:42:40;;;;;;;17.48;12.32;;;13.00;99.90;;;;;;4790975;29;20697;-42
2021/03/03 10:45:21;;;;;;;16.77;11.82;;;14.60;99.90;;;;;;4796270;29;20738;-42
2021/03/03 10:47:49;;;;;;;18.60;10.85;;;16.20;99.90;;;;;;4782327;30;20208;-42
2021/03/03 10:50:18;;;;;;;16.05;11.77;;;17.20;99.90;;;;;;4786674;29;20689;-42
2021/03/03 10:53:00;;;;;;;16.30;10.98;;;16.90;99.90;;;;;;4800214;29;20231;-41
2021/03/03 10:55:33;;;;;;;16.98;11.45;;;17.10;99.90;;;;;;4792961;29;20295;-41
2021/03/03 10:58:11;;;;;;;16.48;11.95;;;17.70;99.90;;;;;;4803102;29;20216;-42
2021/03/03 11:00:59;;;;;;;17.08;10.52;;;16.90;99.90;;;;;;4804787;29;20310;-41
2021/03/03 11:03:26;;;;;;;18.13;10.75;;;15.50;99.90;;;;;;4792864;29;20305;-41
2021/03/03 11:05:54;;;;;;;16.77;12.32;;;15.00;99.90;;;;;;4798687;29;20276;-41
2021/03/03 11:08:24;;;;;;;15.50;12.02;;;15.80;99.90;;;;;;4776943;29;20213;-42
2021/03/03 11:10:52;;;;;;;15.57;12.00;;;16.70;99.90;;;;;;4771308;30;20693;-42
2021/03/03 11:13:35;;;;;;;24.48;13.15;;;17.40;99.90;;;;;;4790761;29;20641;-41
2021/03/03 11:16:03;;;;;;;18.58;11.73;;;17.60;99.90;;;;;;4795581;29;20720;-42
2021/03/03 11:18:30;;;;;;;15.88;11.68;;;17.80;99.90;;;;;;4805219;29;20280;-42
2021/03/03 11:20:59;;;;;;;16.52;12.15;;;17.00;99.90;;;;;;4799818;29;20223;-41
2021/03/03 11:23:27;;;;;;;17.33;12.57;;;16.00;99.90;;;;;;4795271;29;20238;-41
2021/03/03 11:25:55;;;;;;;20.50;12.98;;;15.80;99.90;;;;;;4795189;29;20223;-42
2021/03/03 11:28:23;;;;;;;17.73;11.32;;;16.70;99.90;;;;;;4787847;29;20204;-42
2021/03/03 11:30:50;;;;;;;16.67;12.00;;;17.40;99.90;;;;;;4795362;29;20205;-43
2021/03/03 11:33:17;;;;;;;17.83;12.57;;;16.70;99.90;;;;;;4786206;29;20267;-42
2021/03/03 11:35:43;;;;;;;14.43;11.38;;;15.90;99.90;;;;;;4789394;29;20204;-41
2021/03/03 11:38:10;;;;;;;16.67;13.75;;;15.50;99.90;;;;;;4793320;29;20215;-41
2021/03/03 11:40:38;;;;;;;15.10;11.98;;;15.40;99.90;;;;;;4791252;29;20628;-41
2021/03/03 11:43:19;;;;;;;19.33;12.57;;;15.60;99.90;;;;;;4784259;29;20230;-41
2021/03/03 11:45:46;;;;;;;17.60;12.70;;;15.60;99.90;;;;;;4804170;29;20269;-41
2021/03/03 11:48:12;;;;;;;21.13;15.23;;;15.20;99.90;;;;;;4805453;29;20538;-41
2021/03/03 11:50:39;;;;;;;17.88;12.88;;;15.20;99.90;;;;;;4807043;29;20207;-42
2021/03/03 11:53:06;;;;;;;21.77;14.02;;;15.00;99.90;;;;;;4794103;29;20227;-42
2021/03/03 11:55:33;;;;;;;21.95;14.90;;;14.90;99.90;;;;;;4797662;29;20208;-41
2021/03/03 11:58:00;;;;;;;24.20;13.50;;;14.80;99.90;;;;;;4799525;29;20294;-42
2021/03/03 12:00:27;;;;;;;19.38;13.45;;;15.10;99.90;;;;;;4805837;29;20653;-42
2021/03/03 12:02:54;;;;;;;25.00;14.70;;;15.30;99.90;;;;;;4798501;29;20229;-42
2021/03/03 12:05:21;;;;;;;19.25;14.10;;;15.20;99.90;;;;;;4794789;29;20305;-42
2021/03/03 12:07:48;;;;;;;21.00;13.95;;;15.20;99.90;;;;;;4778572;29;20611;-42
2021/03/03 12:10:15;;;;;;;22.92;13.75;;;15.20;99.90;;;;;;4797345;29;20199;-41
2021/03/03 12:12:42;;;;;;;21.42;13.70;;;15.40;99.90;;;;;;4795627;29;20238;-42
2021/03/03 12:15:10;;;;;;;20.85;14.82;;;15.40;99.90;;;;;;4791946;29;20234;-42
2021/03/03 12:17:37;;;;;;;19.75;12.82;;;15.40;99.90;;;;;;4798742;29;20269;-41
2021/03/03 12:20:05;;;;;;;28.13;14.25;;;15.40;99.90;;;;;;4799682;29;20220;-42
2021/03/03 12:22:32;;;;;;;22.40;13.50;;;15.70;99.90;;;;;;4794874;29;20203;-43
2021/03/03 12:24:58;;;;;;;20.02;12.93;;;16.00;99.90;;;;;;4793700;29;20483;-42
2021/03/03 12:27:25;;;;;;;21.33;13.55;;;16.00;99.90;;;;;;4779198;29;20200;-42
2021/03/03 12:29:52;;;;;;;19.23;14.77;;;15.90;99.90;;;;;;4790555;29;20220;-41
2021/03/03 12:32:19;;;;;;;23.08;14.48;;;15.70;99.90;;;;;;4790733;29;20260;-40
2021/03/03 12:34:46;;;;;;;18.70;12.27;;;15.70;99.90;;;;;;4786604;29;20205;-42
2021/03/03 12:37:13;;;;;;;21.75;14.27;;;15.80;99.90;;;;;;4791812;29;20200;-42
2021/03/03 12:39:40;;;;;;;21.15;14.48;;;16.00;99.90;;;;;;4799145;29;20210;-42
2021/03/03 12:42:07;;;;;;;18.63;13.45;;;15.90;99.90;;;;;;4794536;29;20204;-42
2021/03/03 12:44:34;;;;;;;21.85;14.77;;;16.00;99.90;;;;;;4796448;29;20228;-43
2021/03/03 12:47:01;;;;;;;24.63;14.85;;;16.10;99.90;;;;;;4791749;29;20223;-41
2021/03/03 12:49:29;;;;;;;21.08;15.32;;;16.30;99.90;;;;;;4800440;29;20646;-42
2021/03/03 12:51:55;;;;;;;20.45;14.48;;;16.40;99.90;;;;;;4799273;29;20197;-42
2021/03/03 12:54:22;;;;;;;22.30;15.50;;;16.30;99.90;;;;;;4804960;29;20716;-41